sensor_id;sensor_type;location;lat;lon;timestamp;temperature;humidity
81218;DHT22;70689;52.494;13.420;2023-08-06T00:00:24;19.90;59.80
81218;DHT22;70689;52.494;13.420;2023-08-06T00:02:50;20.00;59.50
81218;DHT22;70689;52.494;13.420;2023-08-06T00:05:16;19.90;59.80
81218;DHT22;70689;52.494;13.420;2023-08-06T00:07:47;19.80;60.40
81218;DHT22;70689;52.494;13.420;2023-08-06T00:10:13;19.80;60.80
81218;DHT22;70689;52.494;13.420;2023-08-06T00:12:38;19.90;60.40
81218;DHT22;70689;52.494;13.420;2023-08-06T00:15:04;19.80;60.50
81218;DHT22;70689;52.494;13.420;2023-08-06T00:17:30;19.90;60.50
81218;DHT22;70689;52.494;13.420;2023-08-06T00:19:56;19.90;60.60
81218;DHT22;70689;52.494;13.420;2023-08-06T00:22:21;20.10;60.00
81218;DHT22;70689;52.494;13.420;2023-08-06T00:24:47;20.00;59.90
81218;DHT22;70689;52.494;13.420;2023-08-06T00:27:12;20.00;60.30
81218;DHT22;70689;52.494;13.420;2023-08-06T00:29:38;19.90;60.90
81218;DHT22;70689;52.494;13.420;2023-08-06T00:32:04;19.80;62.30
81218;DHT22;70689;52.494;13.420;2023-08-06T00:34:29;19.80;61.30
81218;DHT22;70689;52.494;13.420;2023-08-06T00:36:55;19.80;61.40
81218;DHT22;70689;52.494;13.420;2023-08-06T00:39:20;19.90;61.00
81218;DHT22;70689;52.494;13.420;2023-08-06T00:41:46;20.00;60.90
81218;DHT22;70689;52.494;13.420;2023-08-06T00:44:12;19.90;61.10
81218;DHT22;70689;52.494;13.420;2023-08-06T00:46:38;20.00;61.10
81218;DHT22;70689;52.494;13.420;2023-08-06T00:49:05;20.00;60.70
81218;DHT22;70689;52.494;13.420;2023-08-06T00:51:31;19.80;61.30
81218;DHT22;70689;52.494;13.420;2023-08-06T00:53:57;19.80;61.50
81218;DHT22;70689;52.494;13.420;2023-08-06T00:56:24;19.80;61.70
81218;DHT22;70689;52.494;13.420;2023-08-06T00:58:50;19.80;61.50
81218;DHT22;70689;52.494;13.420;2023-08-06T01:01:16;19.90;61.40
81218;DHT22;70689;52.494;13.420;2023-08-06T01:03:41;19.80;61.90
81218;DHT22;70689;52.494;13.420;2023-08-06T01:06:07;19.70;62.40
81218;DHT22;70689;52.494;13.420;2023-08-06T01:08:58;19.70;62.40
81218;DHT22;70689;52.494;13.420;2023-08-06T01:11:33;19.70;62.30
81218;DHT22;70689;52.494;13.420;2023-08-06T01:14:10;19.70;62.30
81218;DHT22;70689;52.494;13.420;2023-08-06T01:16:39;19.70;62.30
81218;DHT22;70689;52.494;13.420;2023-08-06T01:19:16;19.60;62.70
81218;DHT22;70689;52.494;13.420;2023-08-06T01:21:42;19.70;62.60
81218;DHT22;70689;52.494;13.420;2023-08-06T01:24:08;19.60;62.70
81218;DHT22;70689;52.494;13.420;2023-08-06T01:26:40;19.60;63.00
81218;DHT22;70689;52.494;13.420;2023-08-06T01:29:34;19.60;63.00
81218;DHT22;70689;52.494;13.420;2023-08-06T01:32:01;19.60;63.00
81218;DHT22;70689;52.494;13.420;2023-08-06T01:34:31;19.50;64.10
81218;DHT22;70689;52.494;13.420;2023-08-06T01:36:59;19.60;62.80
81218;DHT22;70689;52.494;13.420;2023-08-06T01:39:25;19.70;62.70
81218;DHT22;70689;52.494;13.420;2023-08-06T01:41:51;19.60;63.00
81218;DHT22;70689;52.494;13.420;2023-08-06T01:44:17;19.70;62.60
81218;DHT22;70689;52.494;13.420;2023-08-06T01:46:43;19.70;62.80
81218;DHT22;70689;52.494;13.420;2023-08-06T01:49:08;19.70;62.70
81218;DHT22;70689;52.494;13.420;2023-08-06T01:51:34;19.60;62.90
81218;DHT22;70689;52.494;13.420;2023-08-06T01:54:00;19.60;63.40
81218;DHT22;70689;52.494;13.420;2023-08-06T01:56:25;19.60;63.10
81218;DHT22;70689;52.494;13.420;2023-08-06T01:58:51;19.50;63.40
81218;DHT22;70689;52.494;13.420;2023-08-06T02:01:17;19.40;63.50
81218;DHT22;70689;52.494;13.420;2023-08-06T02:03:42;19.30;64.50
81218;DHT22;70689;52.494;13.420;2023-08-06T02:06:08;19.20;65.50
81218;DHT22;70689;52.494;13.420;2023-08-06T02:08:34;19.20;65.70
81218;DHT22;70689;52.494;13.420;2023-08-06T02:10:59;19.20;65.70
81218;DHT22;70689;52.494;13.420;2023-08-06T02:13:25;19.20;66.80
81218;DHT22;70689;52.494;13.420;2023-08-06T02:15:50;19.20;66.20
81218;DHT22;70689;52.494;13.420;2023-08-06T02:18:16;19.20;65.70
81218;DHT22;70689;52.494;13.420;2023-08-06T02:20:42;19.20;65.10
81218;DHT22;70689;52.494;13.420;2023-08-06T02:23:08;19.10;65.60
81218;DHT22;70689;52.494;13.420;2023-08-06T02:25:34;19.20;65.80
81218;DHT22;70689;52.494;13.420;2023-08-06T02:28:00;19.10;65.70
81218;DHT22;70689;52.494;13.420;2023-08-06T02:30:26;19.10;66.20
81218;DHT22;70689;52.494;13.420;2023-08-06T02:32:51;19.10;65.70
81218;DHT22;70689;52.494;13.420;2023-08-06T02:35:17;19.10;65.70
81218;DHT22;70689;52.494;13.420;2023-08-06T02:37:43;19.00;66.50
81218;DHT22;70689;52.494;13.420;2023-08-06T02:40:09;19.00;66.80
81218;DHT22;70689;52.494;13.420;2023-08-06T02:42:34;19.10;65.90
81218;DHT22;70689;52.494;13.420;2023-08-06T02:45:00;19.00;65.90
81218;DHT22;70689;52.494;13.420;2023-08-06T02:47:25;19.00;66.70
81218;DHT22;70689;52.494;13.420;2023-08-06T02:49:51;18.90;66.90
81218;DHT22;70689;52.494;13.420;2023-08-06T02:52:17;18.80;67.60
81218;DHT22;70689;52.494;13.420;2023-08-06T02:54:42;18.80;67.40
81218;DHT22;70689;52.494;13.420;2023-08-06T02:57:08;18.90;66.20
81218;DHT22;70689;52.494;13.420;2023-08-06T02:59:34;18.90;65.90
81218;DHT22;70689;52.494;13.420;2023-08-06T03:01:59;18.90;66.20
81218;DHT22;70689;52.494;13.420;2023-08-06T03:04:25;18.90;65.50
81218;DHT22;70689;52.494;13.420;2023-08-06T03:06:51;18.70;66.70
81218;DHT22;70689;52.494;13.420;2023-08-06T03:09:17;18.80;66.40
81218;DHT22;70689;52.494;13.420;2023-08-06T03:11:43;18.70;67.10
81218;DHT22;70689;52.494;13.420;2023-08-06T03:14:09;18.70;67.20
81218;DHT22;70689;52.494;13.420;2023-08-06T03:16:35;18.70;66.90
81218;DHT22;70689;52.494;13.420;2023-08-06T03:19:00;18.80;66.80
81218;DHT22;70689;52.494;13.420;2023-08-06T03:21:26;18.80;66.60
81218;DHT22;70689;52.494;13.420;2023-08-06T03:23:52;18.70;66.80
81218;DHT22;70689;52.494;13.420;2023-08-06T03:26:17;18.60;66.80
81218;DHT22;70689;52.494;13.420;2023-08-06T03:28:43;18.50;67.10
81218;DHT22;70689;52.494;13.420;2023-08-06T03:31:09;18.50;67.70
81218;DHT22;70689;52.494;13.420;2023-08-06T03:33:34;18.50;67.40
81218;DHT22;70689;52.494;13.420;2023-08-06T03:36:00;18.40;67.50
81218;DHT22;70689;52.494;13.420;2023-08-06T03:38:25;18.40;67.90
81218;DHT22;70689;52.494;13.420;2023-08-06T03:40:51;18.40;67.90
81218;DHT22;70689;52.494;13.420;2023-08-06T03:43:17;18.40;67.70
81218;DHT22;70689;52.494;13.420;2023-08-06T03:45:43;18.30;68.50
81218;DHT22;70689;52.494;13.420;2023-08-06T03:48:09;18.40;69.00
81218;DHT22;70689;52.494;13.420;2023-08-06T03:50:34;18.40;68.60
81218;DHT22;70689;52.494;13.420;2023-08-06T03:53:00;18.40;68.90
81218;DHT22;70689;52.494;13.420;2023-08-06T03:55:26;18.40;68.50
81218;DHT22;70689;52.494;13.420;2023-08-06T03:57:51;18.40;68.60
81218;DHT22;70689;52.494;13.420;2023-08-06T04:00:17;18.40;68.80
81218;DHT22;70689;52.494;13.420;2023-08-06T04:02:43;18.40;68.90
81218;DHT22;70689;52.494;13.420;2023-08-06T04:05:08;18.40;68.90
81218;DHT22;70689;52.494;13.420;2023-08-06T04:07:34;18.40;69.10
81218;DHT22;70689;52.494;13.420;2023-08-06T04:10:04;18.50;68.70
81218;DHT22;70689;52.494;13.420;2023-08-06T04:12:30;18.60;68.20
81218;DHT22;70689;52.494;13.420;2023-08-06T04:14:58;18.50;68.00
81218;DHT22;70689;52.494;13.420;2023-08-06T04:17:24;18.50;68.20
81218;DHT22;70689;52.494;13.420;2023-08-06T04:19:54;18.60;68.00
81218;DHT22;70689;52.494;13.420;2023-08-06T04:22:20;18.60;67.90
81218;DHT22;70689;52.494;13.420;2023-08-06T04:24:46;18.60;67.60
81218;DHT22;70689;52.494;13.420;2023-08-06T04:27:13;18.60;67.90
81218;DHT22;70689;52.494;13.420;2023-08-06T04:29:39;18.60;68.00
81218;DHT22;70689;52.494;13.420;2023-08-06T04:32:07;18.60;68.20
81218;DHT22;70689;52.494;13.420;2023-08-06T04:34:33;18.60;68.20
81218;DHT22;70689;52.494;13.420;2023-08-06T04:37:00;18.60;68.00
81218;DHT22;70689;52.494;13.420;2023-08-06T04:39:25;18.50;68.10
81218;DHT22;70689;52.494;13.420;2023-08-06T04:41:51;18.50;68.30
81218;DHT22;70689;52.494;13.420;2023-08-06T04:44:17;18.40;68.30
81218;DHT22;70689;52.494;13.420;2023-08-06T04:46:42;18.30;68.70
81218;DHT22;70689;52.494;13.420;2023-08-06T04:49:08;18.30;69.40
81218;DHT22;70689;52.494;13.420;2023-08-06T04:51:34;18.30;69.10
81218;DHT22;70689;52.494;13.420;2023-08-06T04:53:59;18.30;69.30
81218;DHT22;70689;52.494;13.420;2023-08-06T04:56:25;18.30;69.30
81218;DHT22;70689;52.494;13.420;2023-08-06T04:58:50;18.30;69.30
81218;DHT22;70689;52.494;13.420;2023-08-06T05:01:16;18.30;69.20
81218;DHT22;70689;52.494;13.420;2023-08-06T05:03:42;18.40;69.10
81218;DHT22;70689;52.494;13.420;2023-08-06T05:06:08;18.30;69.20
81218;DHT22;70689;52.494;13.420;2023-08-06T05:08:33;18.40;69.00
81218;DHT22;70689;52.494;13.420;2023-08-06T05:10:59;18.40;68.80
81218;DHT22;70689;52.494;13.420;2023-08-06T05:13:24;18.40;68.70
81218;DHT22;70689;52.494;13.420;2023-08-06T05:15:51;18.40;68.20
81218;DHT22;70689;52.494;13.420;2023-08-06T05:18:18;18.40;68.50
81218;DHT22;70689;52.494;13.420;2023-08-06T05:20:44;18.50;68.40
81218;DHT22;70689;52.494;13.420;2023-08-06T05:23:10;18.50;68.10
81218;DHT22;70689;52.494;13.420;2023-08-06T05:25:36;18.60;68.00
81218;DHT22;70689;52.494;13.420;2023-08-06T05:28:03;18.60;68.20
81218;DHT22;70689;52.494;13.420;2023-08-06T05:30:29;18.60;68.00
81218;DHT22;70689;52.494;13.420;2023-08-06T05:32:54;18.60;67.70
81218;DHT22;70689;52.494;13.420;2023-08-06T05:35:21;18.60;67.50
81218;DHT22;70689;52.494;13.420;2023-08-06T05:37:47;18.60;67.50
81218;DHT22;70689;52.494;13.420;2023-08-06T05:40:13;18.60;66.90
81218;DHT22;70689;52.494;13.420;2023-08-06T05:42:39;18.60;67.00
81218;DHT22;70689;52.494;13.420;2023-08-06T05:45:05;18.60;66.90
81218;DHT22;70689;52.494;13.420;2023-08-06T05:47:31;18.70;67.00
81218;DHT22;70689;52.494;13.420;2023-08-06T05:49:56;18.70;67.30
81218;DHT22;70689;52.494;13.420;2023-08-06T05:52:22;18.70;67.50
81218;DHT22;70689;52.494;13.420;2023-08-06T05:54:47;18.80;67.10
81218;DHT22;70689;52.494;13.420;2023-08-06T05:57:13;18.70;66.20
81218;DHT22;70689;52.494;13.420;2023-08-06T05:59:40;18.80;66.10
81218;DHT22;70689;52.494;13.420;2023-08-06T06:02:06;18.80;65.50
81218;DHT22;70689;52.494;13.420;2023-08-06T06:04:32;18.80;65.50
81218;DHT22;70689;52.494;13.420;2023-08-06T06:06:57;18.80;65.50
81218;DHT22;70689;52.494;13.420;2023-08-06T06:09:23;18.80;65.50
81218;DHT22;70689;52.494;13.420;2023-08-06T06:11:49;18.80;65.50
81218;DHT22;70689;52.494;13.420;2023-08-06T06:14:16;18.80;65.80
81218;DHT22;70689;52.494;13.420;2023-08-06T06:16:42;18.80;66.60
81218;DHT22;70689;52.494;13.420;2023-08-06T06:19:07;18.90;66.70
81218;DHT22;70689;52.494;13.420;2023-08-06T06:21:33;18.90;66.50
81218;DHT22;70689;52.494;13.420;2023-08-06T06:23:58;18.90;66.70
81218;DHT22;70689;52.494;13.420;2023-08-06T06:26:24;18.90;67.20
81218;DHT22;70689;52.494;13.420;2023-08-06T06:28:50;18.80;67.60
81218;DHT22;70689;52.494;13.420;2023-08-06T06:31:16;18.90;67.80
81218;DHT22;70689;52.494;13.420;2023-08-06T06:33:41;19.00;67.80
81218;DHT22;70689;52.494;13.420;2023-08-06T06:36:07;19.00;67.90
81218;DHT22;70689;52.494;13.420;2023-08-06T06:38:34;19.00;67.80
81218;DHT22;70689;52.494;13.420;2023-08-06T06:40:59;18.90;67.40
81218;DHT22;70689;52.494;13.420;2023-08-06T06:43:26;18.90;67.70
81218;DHT22;70689;52.494;13.420;2023-08-06T06:49:17;19.00;68.00
81218;DHT22;70689;52.494;13.420;2023-08-06T06:51:43;19.00;68.00
81218;DHT22;70689;52.494;13.420;2023-08-06T06:54:08;19.10;67.90
81218;DHT22;70689;52.494;13.420;2023-08-06T06:56:34;19.10;68.00
81218;DHT22;70689;52.494;13.420;2023-08-06T06:59:00;19.00;68.50
81218;DHT22;70689;52.494;13.420;2023-08-06T07:01:25;19.00;68.70
81218;DHT22;70689;52.494;13.420;2023-08-06T07:03:51;19.10;68.40
81218;DHT22;70689;52.494;13.420;2023-08-06T07:06:16;19.10;67.80
81218;DHT22;70689;52.494;13.420;2023-08-06T07:08:44;19.20;68.10
81218;DHT22;70689;52.494;13.420;2023-08-06T07:11:09;19.40;67.10
81218;DHT22;70689;52.494;13.420;2023-08-06T07:13:35;19.50;65.90
81218;DHT22;70689;52.494;13.420;2023-08-06T07:16:01;19.50;65.50
81218;DHT22;70689;52.494;13.420;2023-08-06T07:18:27;19.50;65.90
81218;DHT22;70689;52.494;13.420;2023-08-06T07:20:54;19.50;66.40
81218;DHT22;70689;52.494;13.420;2023-08-06T07:23:25;19.60;65.90
81218;DHT22;70689;52.494;13.420;2023-08-06T07:25:51;19.60;65.30
81218;DHT22;70689;52.494;13.420;2023-08-06T07:28:17;19.70;65.10
81218;DHT22;70689;52.494;13.420;2023-08-06T07:30:43;19.50;65.40
81218;DHT22;70689;52.494;13.420;2023-08-06T07:33:10;19.50;65.20
81218;DHT22;70689;52.494;13.420;2023-08-06T07:35:36;19.50;65.40
81218;DHT22;70689;52.494;13.420;2023-08-06T07:38:02;19.40;65.10
81218;DHT22;70689;52.494;13.420;2023-08-06T07:40:28;19.50;64.80
81218;DHT22;70689;52.494;13.420;2023-08-06T07:42:54;19.40;65.20
81218;DHT22;70689;52.494;13.420;2023-08-06T07:45:20;19.30;65.80
81218;DHT22;70689;52.494;13.420;2023-08-06T07:47:45;19.30;66.10
81218;DHT22;70689;52.494;13.420;2023-08-06T07:50:11;19.20;66.40
81218;DHT22;70689;52.494;13.420;2023-08-06T07:52:37;19.10;66.90
81218;DHT22;70689;52.494;13.420;2023-08-06T07:55:03;19.20;66.60
81218;DHT22;70689;52.494;13.420;2023-08-06T07:57:33;19.30;66.10
81218;DHT22;70689;52.494;13.420;2023-08-06T08:00:00;19.30;65.80
81218;DHT22;70689;52.494;13.420;2023-08-06T08:02:25;19.30;66.40
81218;DHT22;70689;52.494;13.420;2023-08-06T08:04:51;19.30;66.70
81218;DHT22;70689;52.494;13.420;2023-08-06T08:07:17;19.30;65.80
81218;DHT22;70689;52.494;13.420;2023-08-06T08:09:46;19.30;66.30
81218;DHT22;70689;52.494;13.420;2023-08-06T08:12:13;19.30;66.50
81218;DHT22;70689;52.494;13.420;2023-08-06T08:14:39;19.10;66.90
81218;DHT22;70689;52.494;13.420;2023-08-06T08:17:05;19.10;67.30
81218;DHT22;70689;52.494;13.420;2023-08-06T08:19:34;19.10;68.10
81218;DHT22;70689;52.494;13.420;2023-08-06T08:22:00;19.20;68.30
81218;DHT22;70689;52.494;13.420;2023-08-06T08:24:26;19.20;68.20
81218;DHT22;70689;52.494;13.420;2023-08-06T08:26:52;19.20;67.70
81218;DHT22;70689;52.494;13.420;2023-08-06T08:29:19;19.30;67.60
81218;DHT22;70689;52.494;13.420;2023-08-06T08:31:44;19.30;67.30
81218;DHT22;70689;52.494;13.420;2023-08-06T08:34:10;19.40;67.10
81218;DHT22;70689;52.494;13.420;2023-08-06T08:36:36;19.50;66.90
81218;DHT22;70689;52.494;13.420;2023-08-06T08:39:01;19.60;66.40
81218;DHT22;70689;52.494;13.420;2023-08-06T08:41:31;19.70;66.30
81218;DHT22;70689;52.494;13.420;2023-08-06T08:43:58;19.80;66.10
81218;DHT22;70689;52.494;13.420;2023-08-06T08:46:27;19.90;66.20
81218;DHT22;70689;52.494;13.420;2023-08-06T08:48:55;20.00;66.20
81218;DHT22;70689;52.494;13.420;2023-08-06T08:51:23;20.00;65.00
81218;DHT22;70689;52.494;13.420;2023-08-06T08:53:49;19.90;65.60
81218;DHT22;70689;52.494;13.420;2023-08-06T08:56:16;19.90;67.00
81218;DHT22;70689;52.494;13.420;2023-08-06T08:58:42;20.00;66.10
81218;DHT22;70689;52.494;13.420;2023-08-06T09:01:07;20.00;65.70
81218;DHT22;70689;52.494;13.420;2023-08-06T09:03:35;20.00;65.20
81218;DHT22;70689;52.494;13.420;2023-08-06T09:06:02;20.00;65.30
81218;DHT22;70689;52.494;13.420;2023-08-06T09:08:39;20.10;66.00
81218;DHT22;70689;52.494;13.420;2023-08-06T09:11:09;20.10;66.20
81218;DHT22;70689;52.494;13.420;2023-08-06T09:13:37;20.20;66.30
81218;DHT22;70689;52.494;13.420;2023-08-06T09:16:03;20.30;65.20
81218;DHT22;70689;52.494;13.420;2023-08-06T09:18:29;20.40;65.40
81218;DHT22;70689;52.494;13.420;2023-08-06T09:20:56;20.30;65.50
81218;DHT22;70689;52.494;13.420;2023-08-06T09:23:28;20.30;65.70
81218;DHT22;70689;52.494;13.420;2023-08-06T09:25:54;20.30;65.10
81218;DHT22;70689;52.494;13.420;2023-08-06T09:28:20;20.30;65.10
81218;DHT22;70689;52.494;13.420;2023-08-06T09:30:48;20.40;65.00
81218;DHT22;70689;52.494;13.420;2023-08-06T09:33:18;20.40;65.30
81218;DHT22;70689;52.494;13.420;2023-08-06T09:35:46;20.30;65.00
81218;DHT22;70689;52.494;13.420;2023-08-06T09:38:12;20.20;65.30
81218;DHT22;70689;52.494;13.420;2023-08-06T09:40:39;20.10;66.10
81218;DHT22;70689;52.494;13.420;2023-08-06T09:43:05;20.00;66.90
81218;DHT22;70689;52.494;13.420;2023-08-06T09:45:37;20.00;67.40
81218;DHT22;70689;52.494;13.420;2023-08-06T09:48:07;20.10;67.10
81218;DHT22;70689;52.494;13.420;2023-08-06T09:50:36;20.40;64.10
81218;DHT22;70689;52.494;13.420;2023-08-06T09:53:04;20.40;64.00
81218;DHT22;70689;52.494;13.420;2023-08-06T09:55:30;20.20;65.20
81218;DHT22;70689;52.494;13.420;2023-08-06T09:57:56;20.20;65.40
81218;DHT22;70689;52.494;13.420;2023-08-06T10:00:23;20.20;64.70
81218;DHT22;70689;52.494;13.420;2023-08-06T10:02:49;20.10;65.90
81218;DHT22;70689;52.494;13.420;2023-08-06T10:05:18;20.10;67.10
81218;DHT22;70689;52.494;13.420;2023-08-06T10:07:43;20.10;67.20
81218;DHT22;70689;52.494;13.420;2023-08-06T10:10:10;20.20;66.60
81218;DHT22;70689;52.494;13.420;2023-08-06T10:12:39;20.20;66.10
81218;DHT22;70689;52.494;13.420;2023-08-06T10:15:09;20.10;66.60
81218;DHT22;70689;52.494;13.420;2023-08-06T10:17:37;20.00;66.90
81218;DHT22;70689;52.494;13.420;2023-08-06T10:20:07;19.90;66.70
81218;DHT22;70689;52.494;13.420;2023-08-06T10:22:34;20.00;67.30
81218;DHT22;70689;52.494;13.420;2023-08-06T10:25:01;20.00;67.40
81218;DHT22;70689;52.494;13.420;2023-08-06T10:27:39;19.80;68.10
81218;DHT22;70689;52.494;13.420;2023-08-06T10:32:51;19.70;69.30
81218;DHT22;70689;52.494;13.420;2023-08-06T10:38:14;19.50;70.00
81218;DHT22;70689;52.494;13.420;2023-08-06T10:40:41;19.50;70.40
81218;DHT22;70689;52.494;13.420;2023-08-06T10:43:07;19.50;70.00
81218;DHT22;70689;52.494;13.420;2023-08-06T10:45:36;19.50;69.20
81218;DHT22;70689;52.494;13.420;2023-08-06T10:48:03;19.50;69.00
81218;DHT22;70689;52.494;13.420;2023-08-06T10:50:30;19.50;69.60
81218;DHT22;70689;52.494;13.420;2023-08-06T10:52:57;19.50;69.40
81218;DHT22;70689;52.494;13.420;2023-08-06T10:55:28;19.50;70.10
81218;DHT22;70689;52.494;13.420;2023-08-06T10:57:54;19.50;68.90
81218;DHT22;70689;52.494;13.420;2023-08-06T11:00:22;19.50;67.40
81218;DHT22;70689;52.494;13.420;2023-08-06T11:02:49;19.50;66.80
81218;DHT22;70689;52.494;13.420;2023-08-06T11:05:18;19.40;67.80
81218;DHT22;70689;52.494;13.420;2023-08-06T11:07:43;19.30;68.50
81218;DHT22;70689;52.494;13.420;2023-08-06T11:10:13;19.30;68.60
81218;DHT22;70689;52.494;13.420;2023-08-06T11:12:39;19.50;68.70
81218;DHT22;70689;52.494;13.420;2023-08-06T11:15:05;19.60;68.80
81218;DHT22;70689;52.494;13.420;2023-08-06T11:17:32;19.70;68.10
81218;DHT22;70689;52.494;13.420;2023-08-06T11:20:05;19.80;68.00
81218;DHT22;70689;52.494;13.420;2023-08-06T11:22:30;19.70;68.40
81218;DHT22;70689;52.494;13.420;2023-08-06T11:24:56;19.80;67.50
81218;DHT22;70689;52.494;13.420;2023-08-06T11:27:22;19.80;67.20
81218;DHT22;70689;52.494;13.420;2023-08-06T11:29:48;19.70;66.60
81218;DHT22;70689;52.494;13.420;2023-08-06T11:32:14;19.70;66.90
81218;DHT22;70689;52.494;13.420;2023-08-06T11:34:40;19.70;66.50
81218;DHT22;70689;52.494;13.420;2023-08-06T11:37:07;19.70;66.10
81218;DHT22;70689;52.494;13.420;2023-08-06T11:39:34;19.80;66.00
81218;DHT22;70689;52.494;13.420;2023-08-06T11:42:02;19.80;65.90
81218;DHT22;70689;52.494;13.420;2023-08-06T11:44:30;19.80;66.10
81218;DHT22;70689;52.494;13.420;2023-08-06T11:46:57;19.90;66.30
81218;DHT22;70689;52.494;13.420;2023-08-06T11:52:14;20.10;65.70
81218;DHT22;70689;52.494;13.420;2023-08-06T11:54:40;20.10;66.00
81218;DHT22;70689;52.494;13.420;2023-08-06T11:57:06;20.20;65.60
81218;DHT22;70689;52.494;13.420;2023-08-06T11:59:32;20.20;65.20
81218;DHT22;70689;52.494;13.420;2023-08-06T12:02:01;20.10;65.50
81218;DHT22;70689;52.494;13.420;2023-08-06T12:04:27;20.10;66.20
81218;DHT22;70689;52.494;13.420;2023-08-06T12:06:52;20.10;66.30
81218;DHT22;70689;52.494;13.420;2023-08-06T12:09:18;20.20;66.30
81218;DHT22;70689;52.494;13.420;2023-08-06T12:11:44;20.10;66.40
81218;DHT22;70689;52.494;13.420;2023-08-06T12:14:10;20.20;66.30
81218;DHT22;70689;52.494;13.420;2023-08-06T12:16:36;20.20;65.90
81218;DHT22;70689;52.494;13.420;2023-08-06T12:19:01;20.20;65.10
81218;DHT22;70689;52.494;13.420;2023-08-06T12:21:27;20.20;65.00
81218;DHT22;70689;52.494;13.420;2023-08-06T12:23:53;20.20;65.40
81218;DHT22;70689;52.494;13.420;2023-08-06T12:26:18;20.10;66.20
81218;DHT22;70689;52.494;13.420;2023-08-06T12:28:44;20.20;66.10
81218;DHT22;70689;52.494;13.420;2023-08-06T12:31:09;20.10;65.60
81218;DHT22;70689;52.494;13.420;2023-08-06T12:33:35;20.00;66.10
81218;DHT22;70689;52.494;13.420;2023-08-06T12:36:01;20.10;67.00
81218;DHT22;70689;52.494;13.420;2023-08-06T12:38:26;20.10;66.70
81218;DHT22;70689;52.494;13.420;2023-08-06T12:40:52;20.00;66.20
81218;DHT22;70689;52.494;13.420;2023-08-06T12:43:17;20.00;66.20
81218;DHT22;70689;52.494;13.420;2023-08-06T12:45:43;19.90;66.70
81218;DHT22;70689;52.494;13.420;2023-08-06T12:48:09;19.90;67.50
81218;DHT22;70689;52.494;13.420;2023-08-06T12:50:35;19.80;67.70
81218;DHT22;70689;52.494;13.420;2023-08-06T12:53:01;19.80;67.20
81218;DHT22;70689;52.494;13.420;2023-08-06T12:55:26;19.80;67.50
81218;DHT22;70689;52.494;13.420;2023-08-06T12:57:52;19.90;67.80
81218;DHT22;70689;52.494;13.420;2023-08-06T13:00:18;19.80;67.70
81218;DHT22;70689;52.494;13.420;2023-08-06T13:02:44;19.70;68.00
81218;DHT22;70689;52.494;13.420;2023-08-06T13:05:10;19.60;68.50
81218;DHT22;70689;52.494;13.420;2023-08-06T13:07:35;19.70;68.50
81218;DHT22;70689;52.494;13.420;2023-08-06T13:10:01;19.80;68.20
81218;DHT22;70689;52.494;13.420;2023-08-06T13:12:27;19.80;68.20
81218;DHT22;70689;52.494;13.420;2023-08-06T13:14:52;19.90;68.60
81218;DHT22;70689;52.494;13.420;2023-08-06T13:17:18;19.90;68.20
81218;DHT22;70689;52.494;13.420;2023-08-06T13:19:44;19.90;67.80
81218;DHT22;70689;52.494;13.420;2023-08-06T13:22:10;19.80;67.90
81218;DHT22;70689;52.494;13.420;2023-08-06T13:24:35;19.80;67.90
81218;DHT22;70689;52.494;13.420;2023-08-06T13:27:01;19.80;68.10
81218;DHT22;70689;52.494;13.420;2023-08-06T13:29:28;19.70;68.20
81218;DHT22;70689;52.494;13.420;2023-08-06T13:31:54;19.60;68.60
81218;DHT22;70689;52.494;13.420;2023-08-06T13:34:19;19.60;69.10
81218;DHT22;70689;52.494;13.420;2023-08-06T13:36:45;19.50;69.50
81218;DHT22;70689;52.494;13.420;2023-08-06T13:39:11;19.40;69.30
81218;DHT22;70689;52.494;13.420;2023-08-06T13:41:37;19.40;69.70
81218;DHT22;70689;52.494;13.420;2023-08-06T13:44:04;19.40;70.40
81218;DHT22;70689;52.494;13.420;2023-08-06T13:46:29;19.30;70.50
81218;DHT22;70689;52.494;13.420;2023-08-06T13:48:55;19.30;70.90
81218;DHT22;70689;52.494;13.420;2023-08-06T13:51:21;19.30;70.40
81218;DHT22;70689;52.494;13.420;2023-08-06T13:53:46;19.30;70.50
81218;DHT22;70689;52.494;13.420;2023-08-06T13:56:12;19.30;70.80
81218;DHT22;70689;52.494;13.420;2023-08-06T13:58:40;19.20;70.40
81218;DHT22;70689;52.494;13.420;2023-08-06T14:01:06;19.10;71.20
81218;DHT22;70689;52.494;13.420;2023-08-06T14:03:32;19.10;71.30
81218;DHT22;70689;52.494;13.420;2023-08-06T14:05:57;19.20;71.50
81218;DHT22;70689;52.494;13.420;2023-08-06T14:08:24;19.10;71.70
81218;DHT22;70689;52.494;13.420;2023-08-06T14:10:51;19.20;71.80
81218;DHT22;70689;52.494;13.420;2023-08-06T14:13:16;19.20;71.90
81218;DHT22;70689;52.494;13.420;2023-08-06T14:15:43;19.20;72.20
81218;DHT22;70689;52.494;13.420;2023-08-06T14:18:15;19.20;72.50
81218;DHT22;70689;52.494;13.420;2023-08-06T14:20:42;19.20;72.60
81218;DHT22;70689;52.494;13.420;2023-08-06T14:23:08;19.20;72.10
81218;DHT22;70689;52.494;13.420;2023-08-06T14:25:34;19.20;72.00
81218;DHT22;70689;52.494;13.420;2023-08-06T14:27:59;19.10;72.90
81218;DHT22;70689;52.494;13.420;2023-08-06T14:30:25;19.20;73.00
81218;DHT22;70689;52.494;13.420;2023-08-06T14:32:51;19.20;73.00
81218;DHT22;70689;52.494;13.420;2023-08-06T14:35:16;19.40;72.30
81218;DHT22;70689;52.494;13.420;2023-08-06T14:37:42;19.30;72.20
81218;DHT22;70689;52.494;13.420;2023-08-06T14:40:09;19.20;71.90
81218;DHT22;70689;52.494;13.420;2023-08-06T14:42:35;19.20;71.40
81218;DHT22;70689;52.494;13.420;2023-08-06T14:45:00;19.30;72.20
81218;DHT22;70689;52.494;13.420;2023-08-06T14:47:26;19.30;70.30
81218;DHT22;70689;52.494;13.420;2023-08-06T14:49:52;19.20;70.70
81218;DHT22;70689;52.494;13.420;2023-08-06T14:52:17;19.10;71.40
81218;DHT22;70689;52.494;13.420;2023-08-06T14:54:43;19.10;71.50
81218;DHT22;70689;52.494;13.420;2023-08-06T14:57:09;19.00;71.30
81218;DHT22;70689;52.494;13.420;2023-08-06T14:59:36;19.10;71.60
81218;DHT22;70689;52.494;13.420;2023-08-06T15:02:01;18.90;72.00
81218;DHT22;70689;52.494;13.420;2023-08-06T15:04:27;19.00;72.40
81218;DHT22;70689;52.494;13.420;2023-08-06T15:06:54;19.10;72.20
81218;DHT22;70689;52.494;13.420;2023-08-06T15:09:19;19.20;72.00
81218;DHT22;70689;52.494;13.420;2023-08-06T15:11:47;19.10;71.20
81218;DHT22;70689;52.494;13.420;2023-08-06T15:14:13;19.10;71.90
81218;DHT22;70689;52.494;13.420;2023-08-06T15:16:39;19.10;72.10
81218;DHT22;70689;52.494;13.420;2023-08-06T15:19:05;19.10;72.00
81218;DHT22;70689;52.494;13.420;2023-08-06T15:21:31;19.20;69.60